< < Back
Terminal Aerodrome Forecast


Current Version              Previous Versions:   1  2  3  4  5  6  7  8  9  

Terminal Aerodrome Forecast

301
FTUS44 KBMX 071120
TAFANB
TAF
KANB 071120Z 0712/0812 33003KT P6SM SKC
     FM071700 30008KT P6SM SCT250
     FM080600 22004KT P6SM BKN050 BKN150=

Latest METAR

144
SAUS70 KWBC 081000
MTRANB
METAR KANB 080953Z AUTO 25006KT 10SM CLR 03/M03 A2989 RMK AO2 SLP125
T00281028


USA.gov is the U.S. government's official web portal to all federal, state and local government web resources and services.